sensor_id;sensor_type;location;lat;lon;timestamp;P1;durP1;ratioP1;P2;durP2;ratioP2
29466;SDS011;60968;37.490;-122.288;2023-08-08T00:01:25;10.23;;;4.45;;
29466;SDS011;60968;37.490;-122.288;2023-08-08T00:04:26;10.75;;;4.85;;
29466;SDS011;60968;37.490;-122.288;2023-08-08T00:07:27;6.25;;;4.07;;
29466;SDS011;60968;37.490;-122.288;2023-08-08T00:10:28;10.50;;;4.32;;
29466;SDS011;60968;37.490;-122.288;2023-08-08T00:13:29;9.40;;;4.90;;
29466;SDS011;60968;37.490;-122.288;2023-08-08T00:16:31;11.45;;;4.32;;
29466;SDS011;60968;37.490;-122.288;2023-08-08T00:19:32;8.30;;;3.80;;
29466;SDS011;60968;37.490;-122.288;2023-08-08T00:22:33;8.98;;;4.25;;
29466;SDS011;60968;37.490;-122.288;2023-08-08T00:25:35;7.65;;;3.92;;
29466;SDS011;60968;37.490;-122.288;2023-08-08T00:28:36;10.07;;;3.92;;
29466;SDS011;60968;37.490;-122.288;2023-08-08T00:31:39;9.38;;;4.13;;
29466;SDS011;60968;37.490;-122.288;2023-08-08T00:34:40;11.50;;;4.30;;
29466;SDS011;60968;37.490;-122.288;2023-08-08T00:37:41;15.77;;;4.22;;
29466;SDS011;60968;37.490;-122.288;2023-08-08T00:40:42;10.30;;;4.80;;
29466;SDS011;60968;37.490;-122.288;2023-08-08T00:43:43;8.10;;;4.28;;
29466;SDS011;60968;37.490;-122.288;2023-08-08T00:46:44;6.63;;;3.15;;
29466;SDS011;60968;37.490;-122.288;2023-08-08T00:49:45;8.10;;;3.70;;
29466;SDS011;60968;37.490;-122.288;2023-08-08T00:52:46;8.27;;;3.75;;
29466;SDS011;60968;37.490;-122.288;2023-08-08T00:55:47;6.07;;;3.30;;
29466;SDS011;60968;37.490;-122.288;2023-08-08T00:58:48;5.20;;;3.15;;
29466;SDS011;60968;37.490;-122.288;2023-08-08T01:01:50;8.63;;;3.55;;
29466;SDS011;60968;37.490;-122.288;2023-08-08T01:04:51;6.43;;;3.75;;
29466;SDS011;60968;37.490;-122.288;2023-08-08T01:07:54;8.60;;;3.22;;
29466;SDS011;60968;37.490;-122.288;2023-08-08T01:11:05;10.20;;;3.67;;
29466;SDS011;60968;37.490;-122.288;2023-08-08T01:14:06;10.27;;;4.10;;
29466;SDS011;60968;37.490;-122.288;2023-08-08T01:17:10;9.83;;;3.83;;
29466;SDS011;60968;37.490;-122.288;2023-08-08T01:20:13;11.20;;;4.20;;
29466;SDS011;60968;37.490;-122.288;2023-08-08T01:26:29;12.30;;;4.23;;
29466;SDS011;60968;37.490;-122.288;2023-08-08T01:29:30;10.37;;;4.00;;
29466;SDS011;60968;37.490;-122.288;2023-08-08T01:32:31;7.50;;;3.70;;
29466;SDS011;60968;37.490;-122.288;2023-08-08T01:35:34;8.67;;;4.00;;
29466;SDS011;60968;37.490;-122.288;2023-08-08T01:38:38;10.90;;;4.10;;
29466;SDS011;60968;37.490;-122.288;2023-08-08T01:41:43;6.73;;;3.43;;
29466;SDS011;60968;37.490;-122.288;2023-08-08T01:44:46;8.87;;;3.77;;
29466;SDS011;60968;37.490;-122.288;2023-08-08T01:47:51;11.07;;;4.33;;
29466;SDS011;60968;37.490;-122.288;2023-08-08T01:50:52;10.47;;;4.33;;
29466;SDS011;60968;37.490;-122.288;2023-08-08T01:53:53;10.97;;;4.30;;
29466;SDS011;60968;37.490;-122.288;2023-08-08T01:56:54;10.10;;;4.40;;
29466;SDS011;60968;37.490;-122.288;2023-08-08T01:59:55;10.13;;;4.20;;
29466;SDS011;60968;37.490;-122.288;2023-08-08T02:02:56;8.27;;;4.10;;
29466;SDS011;60968;37.490;-122.288;2023-08-08T02:05:57;8.27;;;4.23;;
29466;SDS011;60968;37.490;-122.288;2023-08-08T02:08:58;9.17;;;4.53;;
29466;SDS011;60968;37.490;-122.288;2023-08-08T02:11:59;11.73;;;4.53;;
29466;SDS011;60968;37.490;-122.288;2023-08-08T02:15:00;9.97;;;4.60;;
29466;SDS011;60968;37.490;-122.288;2023-08-08T02:18:01;11.87;;;5.30;;
29466;SDS011;60968;37.490;-122.288;2023-08-08T02:21:03;9.90;;;4.57;;
29466;SDS011;60968;37.490;-122.288;2023-08-08T02:24:05;9.97;;;4.57;;
29466;SDS011;60968;37.490;-122.288;2023-08-08T02:27:06;8.20;;;4.27;;
29466;SDS011;60968;37.490;-122.288;2023-08-08T02:30:07;9.67;;;4.23;;
29466;SDS011;60968;37.490;-122.288;2023-08-08T02:33:09;6.77;;;3.80;;
29466;SDS011;60968;37.490;-122.288;2023-08-08T02:36:09;10.07;;;4.97;;
29466;SDS011;60968;37.490;-122.288;2023-08-08T02:39:10;11.60;;;4.13;;
29466;SDS011;60968;37.490;-122.288;2023-08-08T02:42:11;7.87;;;4.40;;
29466;SDS011;60968;37.490;-122.288;2023-08-08T02:45:12;9.43;;;4.20;;
29466;SDS011;60968;37.490;-122.288;2023-08-08T02:48:13;12.47;;;4.90;;
29466;SDS011;60968;37.490;-122.288;2023-08-08T02:51:14;8.73;;;4.83;;
29466;SDS011;60968;37.490;-122.288;2023-08-08T02:54:15;10.37;;;5.70;;
29466;SDS011;60968;37.490;-122.288;2023-08-08T02:57:16;8.63;;;4.90;;
29466;SDS011;60968;37.490;-122.288;2023-08-08T03:00:17;10.00;;;5.60;;
29466;SDS011;60968;37.490;-122.288;2023-08-08T03:03:18;7.60;;;4.67;;
29466;SDS011;60968;37.490;-122.288;2023-08-08T03:06:19;7.57;;;5.07;;
29466;SDS011;60968;37.490;-122.288;2023-08-08T03:09:19;7.17;;;4.87;;
29466;SDS011;60968;37.490;-122.288;2023-08-08T03:12:20;10.37;;;4.53;;
29466;SDS011;60968;37.490;-122.288;2023-08-08T03:15:21;8.30;;;5.17;;
29466;SDS011;60968;37.490;-122.288;2023-08-08T03:18:23;11.33;;;5.07;;
29466;SDS011;60968;37.490;-122.288;2023-08-08T03:21:24;11.00;;;4.73;;
29466;SDS011;60968;37.490;-122.288;2023-08-08T03:24:25;11.00;;;5.47;;
29466;SDS011;60968;37.490;-122.288;2023-08-08T03:27:27;10.63;;;5.40;;
29466;SDS011;60968;37.490;-122.288;2023-08-08T03:30:28;11.97;;;5.13;;
29466;SDS011;60968;37.490;-122.288;2023-08-08T03:33:29;8.53;;;5.20;;
29466;SDS011;60968;37.490;-122.288;2023-08-08T03:36:30;9.40;;;4.63;;
29466;SDS011;60968;37.490;-122.288;2023-08-08T03:39:32;8.53;;;4.57;;
29466;SDS011;60968;37.490;-122.288;2023-08-08T03:42:33;9.90;;;4.63;;
29466;SDS011;60968;37.490;-122.288;2023-08-08T03:45:34;9.73;;;5.63;;
29466;SDS011;60968;37.490;-122.288;2023-08-08T03:48:35;9.53;;;4.73;;
29466;SDS011;60968;37.490;-122.288;2023-08-08T03:51:37;7.57;;;4.33;;
29466;SDS011;60968;37.490;-122.288;2023-08-08T03:54:38;9.83;;;4.63;;
29466;SDS011;60968;37.490;-122.288;2023-08-08T03:57:40;8.60;;;4.93;;
29466;SDS011;60968;37.490;-122.288;2023-08-08T04:00:42;10.27;;;5.03;;
29466;SDS011;60968;37.490;-122.288;2023-08-08T04:03:43;7.23;;;4.57;;
29466;SDS011;60968;37.490;-122.288;2023-08-08T04:06:45;7.80;;;4.57;;
29466;SDS011;60968;37.490;-122.288;2023-08-08T04:09:46;7.73;;;4.13;;
29466;SDS011;60968;37.490;-122.288;2023-08-08T04:12:47;10.00;;;4.30;;
29466;SDS011;60968;37.490;-122.288;2023-08-08T04:15:48;9.93;;;4.43;;
29466;SDS011;60968;37.490;-122.288;2023-08-08T04:18:50;13.23;;;4.57;;
29466;SDS011;60968;37.490;-122.288;2023-08-08T04:21:51;13.70;;;4.60;;
29466;SDS011;60968;37.490;-122.288;2023-08-08T04:24:52;11.73;;;4.57;;
29466;SDS011;60968;37.490;-122.288;2023-08-08T04:27:53;13.77;;;4.40;;
29466;SDS011;60968;37.490;-122.288;2023-08-08T04:30:54;11.27;;;4.77;;
29466;SDS011;60968;37.490;-122.288;2023-08-08T04:33:55;10.70;;;4.00;;
29466;SDS011;60968;37.490;-122.288;2023-08-08T04:36:56;15.87;;;4.93;;
29466;SDS011;60968;37.490;-122.288;2023-08-08T04:39:58;12.67;;;3.93;;
29466;SDS011;60968;37.490;-122.288;2023-08-08T04:42:59;10.57;;;4.33;;
29466;SDS011;60968;37.490;-122.288;2023-08-08T04:46:00;13.90;;;4.50;;
29466;SDS011;60968;37.490;-122.288;2023-08-08T04:49:02;10.00;;;4.30;;
29466;SDS011;60968;37.490;-122.288;2023-08-08T04:52:03;8.57;;;3.70;;
29466;SDS011;60968;37.490;-122.288;2023-08-08T04:55:05;10.50;;;4.13;;
29466;SDS011;60968;37.490;-122.288;2023-08-08T04:58:08;12.23;;;5.10;;
29466;SDS011;60968;37.490;-122.288;2023-08-08T05:01:12;9.87;;;4.20;;
29466;SDS011;60968;37.490;-122.288;2023-08-08T05:04:13;9.37;;;3.80;;
29466;SDS011;60968;37.490;-122.288;2023-08-08T05:07:14;13.23;;;4.53;;
29466;SDS011;60968;37.490;-122.288;2023-08-08T05:10:15;16.63;;;5.00;;
29466;SDS011;60968;37.490;-122.288;2023-08-08T05:13:17;12.33;;;4.33;;
29466;SDS011;60968;37.490;-122.288;2023-08-08T05:16:18;15.63;;;4.63;;
29466;SDS011;60968;37.490;-122.288;2023-08-08T05:19:19;14.43;;;4.90;;
29466;SDS011;60968;37.490;-122.288;2023-08-08T05:22:20;17.73;;;4.83;;
29466;SDS011;60968;37.490;-122.288;2023-08-08T05:25:21;14.73;;;4.20;;
29466;SDS011;60968;37.490;-122.288;2023-08-08T05:28:23;13.50;;;4.70;;
29466;SDS011;60968;37.490;-122.288;2023-08-08T05:31:25;15.50;;;4.37;;
29466;SDS011;60968;37.490;-122.288;2023-08-08T05:34:26;11.97;;;4.60;;
29466;SDS011;60968;37.490;-122.288;2023-08-08T05:37:27;18.07;;;4.63;;
29466;SDS011;60968;37.490;-122.288;2023-08-08T05:40:28;11.67;;;3.90;;
29466;SDS011;60968;37.490;-122.288;2023-08-08T05:43:30;15.57;;;4.57;;
29466;SDS011;60968;37.490;-122.288;2023-08-08T05:46:31;16.90;;;4.23;;
29466;SDS011;60968;37.490;-122.288;2023-08-08T05:49:32;12.33;;;4.20;;
29466;SDS011;60968;37.490;-122.288;2023-08-08T05:52:34;14.77;;;4.30;;
29466;SDS011;60968;37.490;-122.288;2023-08-08T05:55:35;11.13;;;4.17;;
29466;SDS011;60968;37.490;-122.288;2023-08-08T05:58:36;13.60;;;4.37;;
29466;SDS011;60968;37.490;-122.288;2023-08-08T06:01:39;13.27;;;4.37;;
29466;SDS011;60968;37.490;-122.288;2023-08-08T06:04:40;11.70;;;4.10;;
29466;SDS011;60968;37.490;-122.288;2023-08-08T06:07:41;12.63;;;4.53;;
29466;SDS011;60968;37.490;-122.288;2023-08-08T06:10:42;18.57;;;4.97;;
29466;SDS011;60968;37.490;-122.288;2023-08-08T06:13:43;10.87;;;4.03;;
29466;SDS011;60968;37.490;-122.288;2023-08-08T06:16:44;8.67;;;3.97;;
29466;SDS011;60968;37.490;-122.288;2023-08-08T06:19:46;11.33;;;4.30;;
29466;SDS011;60968;37.490;-122.288;2023-08-08T06:22:46;13.60;;;3.80;;
29466;SDS011;60968;37.490;-122.288;2023-08-08T06:25:48;7.57;;;3.63;;
29466;SDS011;60968;37.490;-122.288;2023-08-08T06:28:50;7.50;;;3.40;;
29466;SDS011;60968;37.490;-122.288;2023-08-08T06:31:51;14.77;;;3.53;;
29466;SDS011;60968;37.490;-122.288;2023-08-08T06:34:52;7.80;;;3.53;;
29466;SDS011;60968;37.490;-122.288;2023-08-08T06:37:53;13.00;;;4.30;;
29466;SDS011;60968;37.490;-122.288;2023-08-08T06:40:57;8.87;;;3.53;;
29466;SDS011;60968;37.490;-122.288;2023-08-08T06:43:58;8.33;;;3.77;;
29466;SDS011;60968;37.490;-122.288;2023-08-08T06:46:59;10.87;;;4.27;;
29466;SDS011;60968;37.490;-122.288;2023-08-08T06:50:00;8.87;;;3.50;;
29466;SDS011;60968;37.490;-122.288;2023-08-08T06:53:02;11.57;;;3.87;;
29466;SDS011;60968;37.490;-122.288;2023-08-08T06:56:04;8.43;;;3.40;;
29466;SDS011;60968;37.490;-122.288;2023-08-08T06:59:08;9.17;;;3.60;;
29466;SDS011;60968;37.490;-122.288;2023-08-08T07:02:09;12.50;;;3.70;;
29466;SDS011;60968;37.490;-122.288;2023-08-08T07:05:10;7.80;;;3.13;;
29466;SDS011;60968;37.490;-122.288;2023-08-08T07:08:12;7.77;;;3.63;;
29466;SDS011;60968;37.490;-122.288;2023-08-08T07:11:15;11.03;;;3.30;;
29466;SDS011;60968;37.490;-122.288;2023-08-08T07:14:16;10.77;;;3.93;;
29466;SDS011;60968;37.490;-122.288;2023-08-08T07:17:17;10.70;;;4.17;;
29466;SDS011;60968;37.490;-122.288;2023-08-08T07:20:19;10.57;;;3.40;;
29466;SDS011;60968;37.490;-122.288;2023-08-08T07:23:21;11.73;;;3.77;;
29466;SDS011;60968;37.490;-122.288;2023-08-08T07:26:23;11.07;;;3.73;;
29466;SDS011;60968;37.490;-122.288;2023-08-08T07:29:24;11.83;;;3.27;;
29466;SDS011;60968;37.490;-122.288;2023-08-08T07:32:25;8.77;;;3.40;;
29466;SDS011;60968;37.490;-122.288;2023-08-08T07:35:27;9.37;;;3.77;;
29466;SDS011;60968;37.490;-122.288;2023-08-08T07:38:28;13.10;;;3.97;;
29466;SDS011;60968;37.490;-122.288;2023-08-08T07:41:29;10.30;;;3.40;;
29466;SDS011;60968;37.490;-122.288;2023-08-08T07:44:31;9.43;;;3.50;;
29466;SDS011;60968;37.490;-122.288;2023-08-08T07:47:32;9.97;;;3.20;;
29466;SDS011;60968;37.490;-122.288;2023-08-08T07:50:33;8.10;;;3.33;;
29466;SDS011;60968;37.490;-122.288;2023-08-08T07:53:34;11.97;;;3.80;;
29466;SDS011;60968;37.490;-122.288;2023-08-08T07:56:35;10.23;;;3.73;;
29466;SDS011;60968;37.490;-122.288;2023-08-08T07:59:37;12.00;;;3.70;;
29466;SDS011;60968;37.490;-122.288;2023-08-08T08:02:38;9.73;;;4.40;;
29466;SDS011;60968;37.490;-122.288;2023-08-08T08:05:43;12.07;;;4.60;;
29466;SDS011;60968;37.490;-122.288;2023-08-08T08:08:44;9.37;;;3.70;;
29466;SDS011;60968;37.490;-122.288;2023-08-08T08:11:46;10.17;;;3.57;;
29466;SDS011;60968;37.490;-122.288;2023-08-08T08:14:46;15.13;;;4.73;;
29466;SDS011;60968;37.490;-122.288;2023-08-08T08:17:48;11.87;;;4.60;;
29466;SDS011;60968;37.490;-122.288;2023-08-08T08:20:49;16.93;;;5.50;;
29466;SDS011;60968;37.490;-122.288;2023-08-08T08:23:51;10.93;;;4.10;;
29466;SDS011;60968;37.490;-122.288;2023-08-08T08:26:52;8.50;;;4.07;;
29466;SDS011;60968;37.490;-122.288;2023-08-08T08:29:53;12.00;;;4.70;;
29466;SDS011;60968;37.490;-122.288;2023-08-08T08:32:55;14.27;;;3.80;;
29466;SDS011;60968;37.490;-122.288;2023-08-08T08:35:56;9.67;;;3.67;;
29466;SDS011;60968;37.490;-122.288;2023-08-08T08:38:57;12.33;;;4.70;;
29466;SDS011;60968;37.490;-122.288;2023-08-08T08:41:59;13.57;;;4.60;;
29466;SDS011;60968;37.490;-122.288;2023-08-08T08:45:02;12.37;;;4.20;;
29466;SDS011;60968;37.490;-122.288;2023-08-08T08:48:06;13.53;;;4.60;;
29466;SDS011;60968;37.490;-122.288;2023-08-08T08:51:10;14.03;;;4.97;;
29466;SDS011;60968;37.490;-122.288;2023-08-08T08:54:11;11.87;;;4.33;;
29466;SDS011;60968;37.490;-122.288;2023-08-08T08:57:13;11.77;;;4.57;;
29466;SDS011;60968;37.490;-122.288;2023-08-08T09:00:16;11.67;;;4.80;;
29466;SDS011;60968;37.490;-122.288;2023-08-08T09:03:17;12.00;;;4.67;;
29466;SDS011;60968;37.490;-122.288;2023-08-08T09:06:20;15.10;;;4.40;;
29466;SDS011;60968;37.490;-122.288;2023-08-08T09:09:23;12.23;;;4.60;;
29466;SDS011;60968;37.490;-122.288;2023-08-08T09:12:25;12.83;;;3.83;;
29466;SDS011;60968;37.490;-122.288;2023-08-08T09:15:31;12.13;;;4.10;;
29466;SDS011;60968;37.490;-122.288;2023-08-08T09:18:34;10.13;;;4.23;;
29466;SDS011;60968;37.490;-122.288;2023-08-08T09:21:36;8.53;;;3.37;;
29466;SDS011;60968;37.490;-122.288;2023-08-08T09:24:40;9.53;;;3.80;;
29466;SDS011;60968;37.490;-122.288;2023-08-08T09:27:42;7.37;;;3.30;;
29466;SDS011;60968;37.490;-122.288;2023-08-08T09:30:43;7.83;;;3.50;;
29466;SDS011;60968;37.490;-122.288;2023-08-08T09:33:44;9.03;;;3.23;;
29466;SDS011;60968;37.490;-122.288;2023-08-08T09:36:46;5.30;;;3.03;;
29466;SDS011;60968;37.490;-122.288;2023-08-08T09:39:55;7.53;;;3.67;;
29466;SDS011;60968;37.490;-122.288;2023-08-08T09:42:57;8.47;;;3.73;;
29466;SDS011;60968;37.490;-122.288;2023-08-08T09:45:58;12.43;;;4.07;;
29466;SDS011;60968;37.490;-122.288;2023-08-08T09:48:59;15.97;;;4.63;;
29466;SDS011;60968;37.490;-122.288;2023-08-08T09:52:01;13.47;;;5.20;;
29466;SDS011;60968;37.490;-122.288;2023-08-08T09:55:04;12.70;;;4.77;;
29466;SDS011;60968;37.490;-122.288;2023-08-08T09:58:05;12.67;;;4.70;;
29466;SDS011;60968;37.490;-122.288;2023-08-08T10:01:07;10.50;;;4.67;;
29466;SDS011;60968;37.490;-122.288;2023-08-08T10:04:08;11.50;;;4.60;;
29466;SDS011;60968;37.490;-122.288;2023-08-08T10:07:12;11.50;;;4.77;;
29466;SDS011;60968;37.490;-122.288;2023-08-08T10:10:13;12.80;;;5.80;;
29466;SDS011;60968;37.490;-122.288;2023-08-08T10:13:23;10.60;;;5.27;;
29466;SDS011;60968;37.490;-122.288;2023-08-08T10:16:25;13.10;;;5.40;;
29466;SDS011;60968;37.490;-122.288;2023-08-08T10:19:26;10.30;;;5.43;;
29466;SDS011;60968;37.490;-122.288;2023-08-08T10:22:27;13.13;;;4.97;;
29466;SDS011;60968;37.490;-122.288;2023-08-08T10:25:30;11.83;;;4.70;;
29466;SDS011;60968;37.490;-122.288;2023-08-08T10:28:32;11.43;;;4.83;;
29466;SDS011;60968;37.490;-122.288;2023-08-08T10:31:33;11.07;;;4.80;;
29466;SDS011;60968;37.490;-122.288;2023-08-08T10:34:38;17.93;;;5.40;;
29466;SDS011;60968;37.490;-122.288;2023-08-08T10:37:40;9.93;;;4.50;;
29466;SDS011;60968;37.490;-122.288;2023-08-08T10:40:56;9.13;;;4.73;;
29466;SDS011;60968;37.490;-122.288;2023-08-08T10:43:58;10.13;;;4.63;;
29466;SDS011;60968;37.490;-122.288;2023-08-08T10:46:59;13.47;;;5.10;;
29466;SDS011;60968;37.490;-122.288;2023-08-08T10:53:10;10.97;;;5.23;;
29466;SDS011;60968;37.490;-122.288;2023-08-08T10:56:13;15.20;;;6.10;;
29466;SDS011;60968;37.490;-122.288;2023-08-08T10:59:15;14.63;;;6.20;;
29466;SDS011;60968;37.490;-122.288;2023-08-08T11:02:19;19.47;;;6.53;;
29466;SDS011;60968;37.490;-122.288;2023-08-08T11:05:24;15.13;;;5.63;;
29466;SDS011;60968;37.490;-122.288;2023-08-08T11:08:26;15.03;;;6.20;;
29466;SDS011;60968;37.490;-122.288;2023-08-08T11:11:35;9.03;;;4.33;;
29466;SDS011;60968;37.490;-122.288;2023-08-08T11:14:40;9.53;;;4.70;;
29466;SDS011;60968;37.490;-122.288;2023-08-08T11:17:42;12.73;;;4.77;;
29466;SDS011;60968;37.490;-122.288;2023-08-08T11:20:43;31.53;;;4.93;;
29466;SDS011;60968;37.490;-122.288;2023-08-08T11:23:45;13.90;;;5.40;;
29466;SDS011;60968;37.490;-122.288;2023-08-08T11:26:48;18.93;;;6.33;;
29466;SDS011;60968;37.490;-122.288;2023-08-08T11:29:49;18.47;;;6.30;;
29466;SDS011;60968;37.490;-122.288;2023-08-08T11:32:51;16.87;;;7.30;;
29466;SDS011;60968;37.490;-122.288;2023-08-08T11:35:52;88.37;;;8.70;;
29466;SDS011;60968;37.490;-122.288;2023-08-08T11:38:53;62.87;;;7.67;;
29466;SDS011;60968;37.490;-122.288;2023-08-08T11:41:54;23.97;;;6.43;;
29466;SDS011;60968;37.490;-122.288;2023-08-08T11:44:56;12.90;;;5.50;;
29466;SDS011;60968;37.490;-122.288;2023-08-08T11:47:58;10.90;;;5.33;;
29466;SDS011;60968;37.490;-122.288;2023-08-08T11:50:59;11.10;;;4.67;;
29466;SDS011;60968;37.490;-122.288;2023-08-08T11:54:01;6.13;;;4.10;;
29466;SDS011;60968;37.490;-122.288;2023-08-08T11:57:03;12.67;;;4.30;;
29466;SDS011;60968;37.490;-122.288;2023-08-08T12:00:08;10.57;;;4.70;;
29466;SDS011;60968;37.490;-122.288;2023-08-08T12:03:11;10.30;;;3.73;;
29466;SDS011;60968;37.490;-122.288;2023-08-08T12:06:13;12.63;;;4.47;;
29466;SDS011;60968;37.490;-122.288;2023-08-08T12:09:15;10.50;;;4.40;;
29466;SDS011;60968;37.490;-122.288;2023-08-08T12:12:19;10.83;;;4.53;;
29466;SDS011;60968;37.490;-122.288;2023-08-08T12:15:20;8.80;;;5.07;;
29466;SDS011;60968;37.490;-122.288;2023-08-08T12:18:21;11.23;;;4.70;;
29466;SDS011;60968;37.490;-122.288;2023-08-08T12:21:22;12.73;;;4.60;;
29466;SDS011;60968;37.490;-122.288;2023-08-08T12:24:24;11.47;;;5.47;;
29466;SDS011;60968;37.490;-122.288;2023-08-08T12:27:25;13.53;;;5.63;;
29466;SDS011;60968;37.490;-122.288;2023-08-08T12:30:26;15.37;;;5.73;;
29466;SDS011;60968;37.490;-122.288;2023-08-08T12:33:27;10.23;;;5.07;;
29466;SDS011;60968;37.490;-122.288;2023-08-08T12:36:28;11.67;;;5.47;;
29466;SDS011;60968;37.490;-122.288;2023-08-08T12:39:29;8.53;;;4.20;;
29466;SDS011;60968;37.490;-122.288;2023-08-08T12:42:30;11.23;;;3.90;;
29466;SDS011;60968;37.490;-122.288;2023-08-08T12:45:31;11.23;;;4.83;;
29466;SDS011;60968;37.490;-122.288;2023-08-08T12:48:33;10.03;;;4.80;;
29466;SDS011;60968;37.490;-122.288;2023-08-08T12:51:34;10.40;;;3.57;;
29466;SDS011;60968;37.490;-122.288;2023-08-08T12:54:35;8.57;;;4.53;;
29466;SDS011;60968;37.490;-122.288;2023-08-08T12:57:36;16.30;;;5.30;;
29466;SDS011;60968;37.490;-122.288;2023-08-08T13:00:38;16.07;;;7.27;;
29466;SDS011;60968;37.490;-122.288;2023-08-08T13:03:39;25.23;;;8.57;;
29466;SDS011;60968;37.490;-122.288;2023-08-08T13:06:40;16.23;;;7.93;;
29466;SDS011;60968;37.490;-122.288;2023-08-08T13:09:41;16.67;;;7.93;;
29466;SDS011;60968;37.490;-122.288;2023-08-08T13:12:42;19.13;;;7.33;;
29466;SDS011;60968;37.490;-122.288;2023-08-08T13:15:43;14.83;;;8.10;;
29466;SDS011;60968;37.490;-122.288;2023-08-08T13:18:46;14.67;;;7.40;;
29466;SDS011;60968;37.490;-122.288;2023-08-08T13:21:47;15.37;;;8.03;;
29466;SDS011;60968;37.490;-122.288;2023-08-08T13:24:48;11.30;;;6.40;;
29466;SDS011;60968;37.490;-122.288;2023-08-08T13:27:49;14.87;;;6.50;;
29466;SDS011;60968;37.490;-122.288;2023-08-08T13:30:50;11.57;;;6.13;;
29466;SDS011;60968;37.490;-122.288;2023-08-08T13:33:51;10.33;;;5.57;;
29466;SDS011;60968;37.490;-122.288;2023-08-08T13:36:52;10.27;;;5.60;;
29466;SDS011;60968;37.490;-122.288;2023-08-08T13:39:53;16.73;;;6.50;;
29466;SDS011;60968;37.490;-122.288;2023-08-08T13:42:54;16.30;;;7.60;;
29466;SDS011;60968;37.490;-122.288;2023-08-08T13:45:55;15.47;;;6.77;;
29466;SDS011;60968;37.490;-122.288;2023-08-08T13:49:02;15.73;;;7.27;;
29466;SDS011;60968;37.490;-122.288;2023-08-08T13:52:03;14.70;;;7.17;;
29466;SDS011;60968;37.490;-122.288;2023-08-08T13:55:05;15.90;;;7.13;;
29466;SDS011;60968;37.490;-122.288;2023-08-08T13:58:07;14.17;;;6.43;;
29466;SDS011;60968;37.490;-122.288;2023-08-08T14:01:09;15.17;;;7.93;;
29466;SDS011;60968;37.490;-122.288;2023-08-08T14:04:10;19.10;;;7.87;;
29466;SDS011;60968;37.490;-122.288;2023-08-08T14:07:11;15.33;;;6.60;;
29466;SDS011;60968;37.490;-122.288;2023-08-08T14:10:12;18.93;;;7.00;;
29466;SDS011;60968;37.490;-122.288;2023-08-08T14:13:13;14.63;;;6.23;;
29466;SDS011;60968;37.490;-122.288;2023-08-08T14:16:14;13.90;;;6.20;;
29466;SDS011;60968;37.490;-122.288;2023-08-08T14:19:15;14.03;;;6.57;;
29466;SDS011;60968;37.490;-122.288;2023-08-08T14:22:17;11.80;;;5.40;;
29466;SDS011;60968;37.490;-122.288;2023-08-08T14:25:18;13.97;;;5.13;;
29466;SDS011;60968;37.490;-122.288;2023-08-08T14:28:19;8.03;;;4.70;;
29466;SDS011;60968;37.490;-122.288;2023-08-08T14:31:20;12.63;;;4.73;;
29466;SDS011;60968;37.490;-122.288;2023-08-08T14:34:28;10.50;;;4.60;;
29466;SDS011;60968;37.490;-122.288;2023-08-08T14:37:31;10.80;;;4.80;;
29466;SDS011;60968;37.490;-122.288;2023-08-08T14:40:32;10.70;;;4.80;;
29466;SDS011;60968;37.490;-122.288;2023-08-08T14:43:33;16.23;;;6.60;;
29466;SDS011;60968;37.490;-122.288;2023-08-08T14:46:35;8.60;;;5.83;;
29466;SDS011;60968;37.490;-122.288;2023-08-08T14:49:36;9.93;;;5.27;;
29466;SDS011;60968;37.490;-122.288;2023-08-08T14:52:37;11.57;;;5.60;;
29466;SDS011;60968;37.490;-122.288;2023-08-08T14:55:38;10.90;;;5.00;;
29466;SDS011;60968;37.490;-122.288;2023-08-08T14:58:39;6.83;;;4.23;;
29466;SDS011;60968;37.490;-122.288;2023-08-08T15:01:41;9.57;;;3.73;;
29466;SDS011;60968;37.490;-122.288;2023-08-08T15:04:42;10.53;;;4.17;;
29466;SDS011;60968;37.490;-122.288;2023-08-08T15:07:43;7.07;;;3.90;;
29466;SDS011;60968;37.490;-122.288;2023-08-08T15:10:44;6.97;;;3.80;;
29466;SDS011;60968;37.490;-122.288;2023-08-08T15:13:45;4.93;;;3.20;;
29466;SDS011;60968;37.490;-122.288;2023-08-08T15:16:51;9.37;;;4.30;;
29466;SDS011;60968;37.490;-122.288;2023-08-08T15:19:53;9.27;;;4.07;;
29466;SDS011;60968;37.490;-122.288;2023-08-08T15:22:54;7.63;;;3.53;;
29466;SDS011;60968;37.490;-122.288;2023-08-08T15:25:55;7.87;;;3.00;;
29466;SDS011;60968;37.490;-122.288;2023-08-08T15:28:58;5.60;;;3.53;;
29466;SDS011;60968;37.490;-122.288;2023-08-08T15:31:59;5.77;;;3.60;;
29466;SDS011;60968;37.490;-122.288;2023-08-08T15:35:00;8.83;;;3.80;;
29466;SDS011;60968;37.490;-122.288;2023-08-08T15:38:01;8.87;;;3.87;;
29466;SDS011;60968;37.490;-122.288;2023-08-08T15:41:03;7.50;;;4.27;;
29466;SDS011;60968;37.490;-122.288;2023-08-08T15:44:04;8.07;;;4.03;;
29466;SDS011;60968;37.490;-122.288;2023-08-08T15:47:05;9.17;;;4.30;;
29466;SDS011;60968;37.490;-122.288;2023-08-08T15:50:07;7.77;;;3.90;;
29466;SDS011;60968;37.490;-122.288;2023-08-08T15:53:08;8.20;;;4.27;;
29466;SDS011;60968;37.490;-122.288;2023-08-08T15:56:09;8.40;;;3.73;;
29466;SDS011;60968;37.490;-122.288;2023-08-08T15:59:11;5.73;;;3.50;;
29466;SDS011;60968;37.490;-122.288;2023-08-08T16:02:12;5.77;;;3.60;;
29466;SDS011;60968;37.490;-122.288;2023-08-08T16:05:13;11.00;;;3.27;;
29466;SDS011;60968;37.490;-122.288;2023-08-08T16:08:14;6.57;;;3.50;;
29466;SDS011;60968;37.490;-122.288;2023-08-08T16:11:15;5.00;;;3.30;;
29466;SDS011;60968;37.490;-122.288;2023-08-08T16:14:16;13.33;;;4.27;;
29466;SDS011;60968;37.490;-122.288;2023-08-08T16:17:18;7.33;;;3.60;;
29466;SDS011;60968;37.490;-122.288;2023-08-08T16:20:19;5.73;;;3.27;;
29466;SDS011;60968;37.490;-122.288;2023-08-08T16:23:20;7.27;;;3.90;;
29466;SDS011;60968;37.490;-122.288;2023-08-08T16:26:21;7.73;;;3.40;;
29466;SDS011;60968;37.490;-122.288;2023-08-08T16:29:22;4.87;;;3.33;;
29466;SDS011;60968;37.490;-122.288;2023-08-08T16:32:23;8.40;;;3.37;;
29466;SDS011;60968;37.490;-122.288;2023-08-08T16:35:25;5.10;;;3.23;;
29466;SDS011;60968;37.490;-122.288;2023-08-08T16:38:26;6.63;;;3.70;;
29466;SDS011;60968;37.490;-122.288;2023-08-08T16:41:27;6.17;;;3.63;;
29466;SDS011;60968;37.490;-122.288;2023-08-08T16:44:28;5.70;;;3.77;;
29466;SDS011;60968;37.490;-122.288;2023-08-08T16:47:30;7.53;;;4.10;;
29466;SDS011;60968;37.490;-122.288;2023-08-08T16:50:31;7.37;;;2.90;;
29466;SDS011;60968;37.490;-122.288;2023-08-08T16:53:32;5.20;;;3.50;;
29466;SDS011;60968;37.490;-122.288;2023-08-08T16:56:33;7.10;;;3.70;;
29466;SDS011;60968;37.490;-122.288;2023-08-08T16:59:34;6.70;;;3.20;;
29466;SDS011;60968;37.490;-122.288;2023-08-08T17:02:35;6.83;;;2.83;;
29466;SDS011;60968;37.490;-122.288;2023-08-08T17:05:37;7.70;;;3.37;;
29466;SDS011;60968;37.490;-122.288;2023-08-08T17:08:38;6.93;;;3.53;;
29466;SDS011;60968;37.490;-122.288;2023-08-08T17:11:39;5.13;;;3.43;;
29466;SDS011;60968;37.490;-122.288;2023-08-08T17:14:40;7.77;;;2.30;;
29466;SDS011;60968;37.490;-122.288;2023-08-08T17:17:42;9.90;;;3.43;;
29466;SDS011;60968;37.490;-122.288;2023-08-08T17:20:43;6.27;;;3.33;;
29466;SDS011;60968;37.490;-122.288;2023-08-08T17:23:49;5.57;;;3.57;;